sensor_id;sensor_type;location;lat;lon;timestamp;pressure;altitude;pressure_sealevel;temperature;humidity
21153;BME280;10734;44.792;20.482;2023-02-12T11:08:00;101717.81;;;5.99;nan
21153;BME280;10734;44.792;20.482;2023-02-12T11:10:30;101714.16;;;6.06;nan
21153;BME280;10734;44.792;20.482;2023-02-12T11:13:00;101719.38;;;6.20;nan
21153;BME280;10734;44.792;20.482;2023-02-12T11:15:34;101712.50;;;5.94;nan
21153;BME280;10734;44.792;20.482;2023-02-12T11:18:06;101716.09;;;5.87;nan
21153;BME280;10734;44.792;20.482;2023-02-12T11:20:39;101715.19;;;5.91;nan
21153;BME280;10734;44.792;20.482;2023-02-12T11:28:35;101720.31;;;6.14;nan
21153;BME280;10734;44.792;20.482;2023-02-12T11:31:03;101712.75;;;6.50;nan
21153;BME280;10734;44.792;20.482;2023-02-12T11:33:43;101721.38;;;6.72;nan
21153;BME280;10734;44.792;20.482;2023-02-12T11:36:22;101722.97;;;6.86;nan
21153;BME280;10734;44.792;20.482;2023-02-12T11:38:54;101722.75;;;6.99;nan
21153;BME280;10734;44.792;20.482;2023-02-12T11:41:33;101715.56;;;7.02;nan
21153;BME280;10734;44.792;20.482;2023-02-12T11:44:10;101713.84;;;6.98;nan
21153;BME280;10734;44.792;20.482;2023-02-12T11:46:38;101715.56;;;7.04;nan
21153;BME280;10734;44.792;20.482;2023-02-12T11:49:06;101718.31;;;6.96;nan
21153;BME280;10734;44.792;20.482;2023-02-12T11:51:35;101716.19;;;7.20;nan
21153;BME280;10734;44.792;20.482;2023-02-12T11:54:03;101717.66;;;7.39;nan
21153;BME280;10734;44.792;20.482;2023-02-12T11:56:44;101716.59;;;7.51;nan
21153;BME280;10734;44.792;20.482;2023-02-12T11:59:36;101720.38;;;7.87;nan
21153;BME280;10734;44.792;20.482;2023-02-12T12:04:42;101711.88;;;8.12;nan
21153;BME280;10734;44.792;20.482;2023-02-12T12:07:21;101716.63;;;7.97;nan
21153;BME280;10734;44.792;20.482;2023-02-12T12:10:19;101713.44;;;7.77;nan
21153;BME280;10734;44.792;20.482;2023-02-12T12:12:52;101709.91;;;7.75;nan
21153;BME280;10734;44.792;20.482;2023-02-12T12:15:25;101710.84;;;7.72;nan
21153;BME280;10734;44.792;20.482;2023-02-12T12:18:46;101705.38;;;7.78;nan
21153;BME280;10734;44.792;20.482;2023-02-12T12:21:46;101706.03;;;7.90;nan
21153;BME280;10734;44.792;20.482;2023-02-12T12:24:27;101712.78;;;8.11;nan
21153;BME280;10734;44.792;20.482;2023-02-12T12:32:50;101689.59;;;8.92;nan
21153;BME280;10734;44.792;20.482;2023-02-12T12:35:32;101698.72;;;9.58;nan
21153;BME280;10734;44.792;20.482;2023-02-12T12:38:12;101704.44;;;10.12;nan
21153;BME280;10734;44.792;20.482;2023-02-12T12:41:08;101689.75;;;10.85;nan
21153;BME280;10734;44.792;20.482;2023-02-12T12:46:28;101702.97;;;11.47;nan
21153;BME280;10734;44.792;20.482;2023-02-12T12:49:18;101709.97;;;11.26;nan
21153;BME280;10734;44.792;20.482;2023-02-12T12:51:57;101703.72;;;12.29;nan
21153;BME280;10734;44.792;20.482;2023-02-12T13:06:11;101708.84;;;13.06;nan
21153;BME280;10734;44.792;20.482;2023-02-12T13:14:24;101727.31;;;13.18;nan
21153;BME280;10734;44.792;20.482;2023-02-12T13:24:55;101724.28;;;13.47;nan
21153;BME280;10734;44.792;20.482;2023-02-12T13:27:26;101708.56;;;13.57;nan
21153;BME280;10734;44.792;20.482;2023-02-12T13:30:06;101726.41;;;13.61;nan
21153;BME280;10734;44.792;20.482;2023-02-12T13:32:44;101720.72;;;14.10;nan
21153;BME280;10734;44.792;20.482;2023-02-12T13:35:20;101717.53;;;14.00;nan
21153;BME280;10734;44.792;20.482;2023-02-12T13:37:53;101727.63;;;13.54;nan
21153;BME280;10734;44.792;20.482;2023-02-12T13:40:25;101721.66;;;13.46;nan
21153;BME280;10734;44.792;20.482;2023-02-12T13:56:46;101722.03;;;11.96;nan
21153;BME280;10734;44.792;20.482;2023-02-12T14:02:27;101727.63;;;12.63;nan
21153;BME280;10734;44.792;20.482;2023-02-12T14:07:20;101742.00;;;13.11;nan
21153;BME280;10734;44.792;20.482;2023-02-12T14:25:41;101752.38;;;12.76;nan
21153;BME280;10734;44.792;20.482;2023-02-12T14:33:45;101751.09;;;12.63;nan
21153;BME280;10734;44.792;20.482;2023-02-12T14:41:45;101758.22;;;13.56;nan
21153;BME280;10734;44.792;20.482;2023-02-12T14:46:45;101758.41;;;13.52;nan
21153;BME280;10734;44.792;20.482;2023-02-12T14:49:39;101755.69;;;13.52;nan
21153;BME280;10734;44.792;20.482;2023-02-12T14:54:45;101756.03;;;12.26;nan
21153;BME280;10734;44.792;20.482;2023-02-12T14:57:37;101759.28;;;12.36;nan
21153;BME280;10734;44.792;20.482;2023-02-12T15:02:53;101761.84;;;12.39;nan
21153;BME280;10734;44.792;20.482;2023-02-12T15:07:52;101769.28;;;11.54;nan
21153;BME280;10734;44.792;20.482;2023-02-12T15:10:23;101768.41;;;10.98;nan
21153;BME280;10734;44.792;20.482;2023-02-12T15:13:17;101773.22;;;10.86;nan
21153;BME280;10734;44.792;20.482;2023-02-12T15:15:49;101766.09;;;11.13;nan
21153;BME280;10734;44.792;20.482;2023-02-12T15:18:41;101774.34;;;11.37;nan
21153;BME280;10734;44.792;20.482;2023-02-12T15:21:18;101784.09;;;11.69;nan
21153;BME280;10734;44.792;20.482;2023-02-12T15:24:04;101782.00;;;11.23;nan
21153;BME280;10734;44.792;20.482;2023-02-12T15:26:43;101777.28;;;10.72;nan
21153;BME280;10734;44.792;20.482;2023-02-12T15:32:16;101788.25;;;9.63;nan
21153;BME280;10734;44.792;20.482;2023-02-12T15:34:47;101791.06;;;9.21;nan
21153;BME280;10734;44.792;20.482;2023-02-12T15:37:34;101775.25;;;8.67;nan
21153;BME280;10734;44.792;20.482;2023-02-12T15:40:02;101799.53;;;8.61;nan
21153;BME280;10734;44.792;20.482;2023-02-12T15:42:36;101801.91;;;8.29;nan
